Time;durP1;ratioP1;P1;durP2;ratioP2;P2;SDS_P1;SDS_P2;PMS_P1;PMS_P2;Temp;Humidity;BMP_temperature;BMP_pressure;BME280_temperature;BME280_humidity;BME280_pressure;Samples;Min_cycle;Max_cycle;Signal;HPM_P1;HPM_P2
2021/11/14 00:01:20;;;;;;;;;;;7.20;99.90;;;;;;5100433;28;19907;-91
2021/11/14 00:03:46;;;;;;;;;;;7.20;99.90;;;;;;5100217;28;20312;-91
2021/11/14 00:06:12;;;;;;;;;;;7.10;99.90;;;;;;5100458;28;19926;-91
2021/11/14 00:08:37;;;;;;;;;;;7.20;99.90;;;;;;5100530;28;19907;-90
2021/11/14 00:11:05;;;;;;;;;;;7.20;99.90;;;;;;5118292;28;19903;-90
2021/11/14 00:13:30;;;;;;;;;;;7.20;99.90;;;;;;5100046;28;19990;-91
2021/11/14 00:15:56;;;;;;;;;;;7.10;99.90;;;;;;5119038;28;19955;-92
2021/11/14 00:18:22;;;;;;;;;;;7.10;99.90;;;;;;5107789;28;19904;-90
2021/11/14 00:20:48;;;;;;;;;;;7.10;99.90;;;;;;5126470;28;19904;-90
2021/11/14 00:23:14;;;;;;;;;;;7.10;99.90;;;;;;5116137;28;19919;-91
2021/11/14 00:25:40;;;;;;;;;;;7.00;99.90;;;;;;5141339;28;19892;-90
2021/11/14 00:28:07;;;;;;;;;;;7.00;99.90;;;;;;5110737;28;20411;-90
2021/11/14 00:30:33;;;;;;;;;;;7.10;99.90;;;;;;5119668;28;19951;-91
2021/11/14 00:32:59;;;;;;;;;;;7.10;99.90;;;;;;5100562;28;19935;-91
2021/11/14 00:35:25;;;;;;;;;;;7.10;99.90;;;;;;5100057;28;19944;-90
2021/11/14 00:37:50;;;;;;;;;;;7.00;99.90;;;;;;5100144;28;19989;-90
2021/11/14 00:40:18;;;;;;;;;;;7.10;99.90;;;;;;5099738;28;20397;-91
2021/11/14 00:42:44;;;;;;;;;;;7.10;99.90;;;;;;5099403;28;19903;-90
2021/11/14 00:45:10;;;;;;;;;;;7.00;99.90;;;;;;5099588;28;19904;-91
2021/11/14 00:47:37;;;;;;;;;;;7.00;99.90;;;;;;5117533;28;19967;-91
2021/11/14 00:50:07;;;;;;;;;;;7.00;99.90;;;;;;5099424;28;19990;-90
2021/11/14 00:52:34;;;;;;;;;;;7.00;99.90;;;;;;5099301;28;19903;-90
2021/11/14 00:55:00;;;;;;;;;;;7.00;99.90;;;;;;5117429;28;19908;-91
2021/11/14 00:57:26;;;;;;;;;;;7.00;99.90;;;;;;5099202;28;19908;-91
2021/11/14 00:59:53;;;;;;;;;;;6.90;99.90;;;;;;5120119;28;19903;-91
2021/11/14 01:02:19;;;;;;;;;;;6.80;99.90;;;;;;5119165;28;19915;-91
2021/11/14 01:04:44;;;;;;;;;;;6.80;99.90;;;;;;5099210;28;19903;-91
2021/11/14 01:07:10;;;;;;;;;;;6.80;99.90;;;;;;5099141;28;20342;-91
2021/11/14 01:09:36;;;;;;;;;;;6.80;99.90;;;;;;5099003;28;19911;-91
2021/11/14 01:12:02;;;;;;;;;;;6.70;99.90;;;;;;5117074;28;19947;-91
2021/11/14 01:14:28;;;;;;;;;;;6.70;99.90;;;;;;5098725;28;19926;-91
2021/11/14 01:16:53;;;;;;;;;;;6.70;99.90;;;;;;5116790;28;19908;-90
2021/11/14 01:19:19;;;;;;;;;;;6.70;99.90;;;;;;5098794;28;19972;-91
2021/11/14 01:21:46;;;;;;;;;;;6.70;99.90;;;;;;5098261;28;19970;-90
2021/11/14 01:24:12;;;;;;;;;;;6.70;99.90;;;;;;5098506;28;19960;-91
2021/11/14 01:26:38;;;;;;;;;;;6.80;99.90;;;;;;5116752;28;20036;-91
2021/11/14 01:29:04;;;;;;;;;;;6.80;99.90;;;;;;5098906;28;20334;-90
2021/11/14 01:31:31;;;;;;;;;;;6.80;99.90;;;;;;5116740;28;19903;-91
2021/11/14 01:33:57;;;;;;;;;;;6.80;99.90;;;;;;5098458;28;19904;-91
2021/11/14 01:36:23;;;;;;;;;;;6.80;99.90;;;;;;5116452;28;20337;-91
2021/11/14 01:38:49;;;;;;;;;;;6.80;99.90;;;;;;5115180;28;20316;-90
2021/11/14 01:41:14;;;;;;;;;;;6.80;99.90;;;;;;5098175;28;19953;-90
2021/11/14 01:43:50;;;;;;;;;;;6.80;99.90;;;;;;5098358;28;19903;-91
2021/11/14 01:46:16;;;;;;;;;;;6.80;99.90;;;;;;5098087;28;19991;-91
2021/11/14 01:48:42;;;;;;;;;;;6.80;99.90;;;;;;5116151;28;20346;-91
2021/11/14 01:51:08;;;;;;;;;;;6.90;99.90;;;;;;5098106;28;19918;-91
2021/11/14 01:53:34;;;;;;;;;;;6.90;99.90;;;;;;5097937;28;19903;-90
2021/11/14 01:56:00;;;;;;;;;;;6.90;99.90;;;;;;5097868;28;19907;-90
2021/11/14 01:58:27;;;;;;;;;;;6.90;99.90;;;;;;5098289;28;19907;-90
2021/11/14 02:00:52;;;;;;;;;;;6.90;99.90;;;;;;5097788;28;19904;-90
2021/11/14 02:03:18;;;;;;;;;;;6.90;99.90;;;;;;5097920;28;19941;-91
2021/11/14 02:05:44;;;;;;;;;;;6.90;99.90;;;;;;5097973;28;20285;-90
2021/11/14 02:08:10;;;;;;;;;;;7.00;99.90;;;;;;5097807;28;19904;-91
2021/11/14 02:10:36;;;;;;;;;;;6.90;99.90;;;;;;5116174;28;19904;-91
2021/11/14 02:13:03;;;;;;;;;;;7.00;99.90;;;;;;5097998;28;19903;-92
2021/11/14 02:15:29;;;;;;;;;;;7.00;99.90;;;;;;5097822;28;20285;-91
2021/11/14 02:17:55;;;;;;;;;;;7.10;99.90;;;;;;5097631;28;19904;-91
2021/11/14 02:20:20;;;;;;;;;;;7.10;99.90;;;;;;5115617;28;19904;-90
2021/11/14 02:22:47;;;;;;;;;;;7.00;99.90;;;;;;5097556;28;19916;-91
2021/11/14 02:25:13;;;;;;;;;;;7.00;99.90;;;;;;5115957;28;20371;-92
2021/11/14 02:27:39;;;;;;;;;;;7.00;99.90;;;;;;5097974;28;19908;-93
2021/11/14 02:30:06;;;;;;;;;;;7.10;99.90;;;;;;5103713;28;19925;-92
2021/11/14 02:32:31;;;;;;;;;;;7.10;99.90;;;;;;5111880;28;19903;-93
2021/11/14 02:34:57;;;;;;;;;;;7.00;99.90;;;;;;5114104;28;19958;-92
2021/11/14 02:37:23;;;;;;;;;;;7.10;99.90;;;;;;5121708;28;19938;-92
2021/11/14 02:39:49;;;;;;;;;;;7.10;99.90;;;;;;5121978;28;19987;-93
2021/11/14 02:42:14;;;;;;;;;;;7.10;99.90;;;;;;5101718;28;19911;-93
2021/11/14 02:44:40;;;;;;;;;;;7.10;99.90;;;;;;5099256;28;19904;-93
2021/11/14 02:47:06;;;;;;;;;;;7.10;99.90;;;;;;5097932;28;20354;-94
2021/11/14 02:49:31;;;;;;;;;;;7.10;99.90;;;;;;5097743;28;19950;-92
2021/11/14 02:51:57;;;;;;;;;;;7.00;99.90;;;;;;5097454;28;19926;-94
2021/11/14 02:54:23;;;;;;;;;;;7.00;99.90;;;;;;5097361;28;20020;-92
2021/11/14 02:56:48;;;;;;;;;;;7.00;99.90;;;;;;5097431;28;19912;-93
2021/11/14 02:59:14;;;;;;;;;;;7.00;99.90;;;;;;5097325;28;19904;-92
2021/11/14 03:01:42;;;;;;;;;;;7.10;99.90;;;;;;5097575;28;20273;-91
2021/11/14 03:04:12;;;;;;;;;;;7.00;99.90;;;;;;5097535;28;19910;-93
2021/11/14 03:06:37;;;;;;;;;;;7.00;99.90;;;;;;5115259;28;19943;-92
2021/11/14 03:09:03;;;;;;;;;;;6.90;99.90;;;;;;5097100;28;19903;-92
2021/11/14 03:11:29;;;;;;;;;;;6.80;99.90;;;;;;5096880;28;19907;-93
2021/11/14 03:13:55;;;;;;;;;;;6.80;99.90;;;;;;5097023;28;20296;-92
2021/11/14 03:16:21;;;;;;;;;;;6.80;99.90;;;;;;5096996;28;19911;-93
2021/11/14 03:18:47;;;;;;;;;;;6.90;99.90;;;;;;5097191;28;19910;-92
2021/11/14 03:21:13;;;;;;;;;;;6.80;99.90;;;;;;5097338;28;19904;-92
2021/11/14 03:23:38;;;;;;;;;;;6.80;99.90;;;;;;5096759;28;19941;-92
2021/11/14 03:26:04;;;;;;;;;;;6.90;99.90;;;;;;5097020;28;20270;-92
2021/11/14 03:28:30;;;;;;;;;;;6.80;99.90;;;;;;5097255;28;19917;-92
2021/11/14 03:30:56;;;;;;;;;;;6.80;99.90;;;;;;5097195;28;19994;-92
2021/11/14 03:33:22;;;;;;;;;;;6.80;99.90;;;;;;5097507;28;19904;-93
2021/11/14 03:35:59;;;;;;;;;;;6.80;99.90;;;;;;5096959;28;19968;-92
2021/11/14 03:38:32;;;;;;;;;;;6.80;99.90;;;;;;5096849;28;19910;-92
2021/11/14 03:40:59;;;;;;;;;;;6.80;99.90;;;;;;5096656;28;20352;-92
2021/11/14 03:43:25;;;;;;;;;;;6.80;99.90;;;;;;5096876;28;19904;-92
2021/11/14 03:45:51;;;;;;;;;;;6.90;99.90;;;;;;5096568;28;19904;-92
2021/11/14 03:48:16;;;;;;;;;;;6.80;99.90;;;;;;5096373;28;19958;-92
2021/11/14 03:50:42;;;;;;;;;;;6.90;99.90;;;;;;5096723;28;19904;-92
2021/11/14 03:53:09;;;;;;;;;;;6.90;99.90;;;;;;5096567;28;19919;-91
2021/11/14 03:55:35;;;;;;;;;;;6.90;99.90;;;;;;5114622;28;20072;-92
2021/11/14 03:58:01;;;;;;;;;;;7.00;99.90;;;;;;5096762;28;19935;-92
2021/11/14 04:00:28;;;;;;;;;;;7.00;99.90;;;;;;5114854;28;19911;-92
2021/11/14 04:02:54;;;;;;;;;;;7.00;99.90;;;;;;5099255;28;19910;-92
2021/11/14 04:05:21;;;;;;;;;;;7.00;99.90;;;;;;5118554;28;19910;-92
2021/11/14 04:07:47;;;;;;;;;;;7.00;99.90;;;;;;5100385;28;19903;-92
2021/11/14 04:10:13;;;;;;;;;;;7.00;99.90;;;;;;5100303;28;20306;-92
2021/11/14 04:12:38;;;;;;;;;;;7.00;99.90;;;;;;5118374;28;19911;-92
2021/11/14 04:15:09;;;;;;;;;;;7.00;99.90;;;;;;5100165;28;19910;-92
2021/11/14 04:17:35;;;;;;;;;;;7.00;99.90;;;;;;5099941;28;19990;-92
2021/11/14 04:20:01;;;;;;;;;;;7.00;99.90;;;;;;5100282;28;19904;-91
2021/11/14 04:22:26;;;;;;;;;;;7.00;99.90;;;;;;5100017;28;19923;-92
2021/11/14 04:24:52;;;;;;;;;;;7.00;99.90;;;;;;5099619;28;19929;-92
2021/11/14 04:27:18;;;;;;;;;;;7.00;99.90;;;;;;5102863;28;19903;-92
2021/11/14 04:29:43;;;;;;;;;;;7.00;99.90;;;;;;5102385;28;19926;-92
2021/11/14 04:32:09;;;;;;;;;;;7.00;99.90;;;;;;5101840;28;20002;-92
2021/11/14 04:34:35;;;;;;;;;;;7.00;99.90;;;;;;5102559;28;19908;-92
2021/11/14 04:37:00;;;;;;;;;;;7.00;99.90;;;;;;5102817;28;19908;-92
2021/11/14 04:39:26;;;;;;;;;;;7.00;99.90;;;;;;5102494;28;19903;-91
2021/11/14 04:41:52;;;;;;;;;;;6.90;99.90;;;;;;5102408;28;19968;-92
2021/11/14 04:44:17;;;;;;;;;;;6.90;99.90;;;;;;5107078;28;19903;-92
2021/11/14 04:46:43;;;;;;;;;;;6.90;99.90;;;;;;5109950;28;19907;-92
2021/11/14 04:49:09;;;;;;;;;;;6.90;99.90;;;;;;5112750;28;19908;-91
2021/11/14 04:51:34;;;;;;;;;;;7.00;99.90;;;;;;5122843;28;19900;-92
2021/11/14 04:54:00;;;;;;;;;;;7.00;99.90;;;;;;5121411;28;19953;-91
2021/11/14 04:56:28;;;;;;;;;;;6.90;99.90;;;;;;5123297;28;20014;-91
2021/11/14 04:58:53;;;;;;;;;;;6.90;99.90;;;;;;5102771;28;19974;-91
2021/11/14 05:01:19;;;;;;;;;;;6.90;99.90;;;;;;5101986;28;19904;-92
2021/11/14 05:03:45;;;;;;;;;;;6.90;99.90;;;;;;5101244;28;19929;-91
2021/11/14 05:06:13;;;;;;;;;;;6.90;99.90;;;;;;5102153;28;19903;-91
2021/11/14 05:08:38;;;;;;;;;;;6.90;99.90;;;;;;5101300;28;20299;-91
2021/11/14 05:11:04;;;;;;;;;;;6.90;99.90;;;;;;5101501;28;19903;-91
2021/11/14 05:13:30;;;;;;;;;;;7.00;99.90;;;;;;5101929;28;19904;-92
2021/11/14 05:15:55;;;;;;;;;;;7.00;99.90;;;;;;5102134;28;19958;-91
2021/11/14 05:18:21;;;;;;;;;;;7.00;99.90;;;;;;5101857;28;19911;-91
2021/11/14 05:20:46;;;;;;;;;;;7.10;99.90;;;;;;5118875;28;20347;-92
2021/11/14 05:23:16;;;;;;;;;;;7.10;99.90;;;;;;5100751;28;19916;-91
2021/11/14 05:25:42;;;;;;;;;;;7.20;99.90;;;;;;5101137;28;19911;-91
2021/11/14 05:28:08;;;;;;;;;;;7.20;99.90;;;;;;5101374;28;20450;-91
2021/11/14 05:30:34;;;;;;;;;;;7.20;99.90;;;;;;5101152;28;19947;-91
2021/11/14 05:33:00;;;;;;;;;;;7.20;99.90;;;;;;5100565;28;19957;-91
2021/11/14 05:35:26;;;;;;;;;;;7.30;99.90;;;;;;5118907;28;19904;-91
2021/11/14 05:37:52;;;;;;;;;;;7.30;99.90;;;;;;5100272;28;19904;-91
2021/11/14 05:40:17;;;;;;;;;;;7.30;99.90;;;;;;5119174;28;19904;-91
2021/11/14 05:42:43;;;;;;;;;;;7.30;99.90;;;;;;5100862;28;19903;-91
2021/11/14 05:45:09;;;;;;;;;;;7.30;99.90;;;;;;5100861;28;19915;-92
2021/11/14 05:47:35;;;;;;;;;;;7.20;99.90;;;;;;5100442;28;19914;-91
2021/11/14 05:50:01;;;;;;;;;;;7.20;99.90;;;;;;5100658;28;19904;-92
2021/11/14 05:52:26;;;;;;;;;;;7.20;99.90;;;;;;5100204;28;19908;-91
2021/11/14 05:54:52;;;;;;;;;;;7.20;99.90;;;;;;5101202;28;19904;-91
2021/11/14 05:57:18;;;;;;;;;;;7.20;99.90;;;;;;5100757;28;19914;-92
2021/11/14 06:00:29;;;;;;;;;;;7.20;99.90;;;;;;5100556;28;19938;-91
2021/11/14 06:02:41;;;;;;;;;;;7.30;99.90;;;;;;5112786;28;19910;-91
2021/11/14 06:07:35;;;;;;;;;;;7.20;99.90;;;;;;5118533;28;19912;-91
2021/11/14 06:10:02;;;;;;;;;;;7.20;99.90;;;;;;5100191;28;19903;-91
2021/11/14 06:12:28;;;;;;;;;;;7.20;99.90;;;;;;5118078;28;20366;-91
2021/11/14 06:14:54;;;;;;;;;;;7.20;99.90;;;;;;5100412;28;19904;-91
2021/11/14 06:17:20;;;;;;;;;;;7.10;99.90;;;;;;5099221;28;19908;-91
2021/11/14 06:19:47;;;;;;;;;;;7.10;99.90;;;;;;5099978;28;19946;-91
2021/11/14 06:22:13;;;;;;;;;;;7.10;99.90;;;;;;5099825;28;19919;-90
2021/11/14 06:24:38;;;;;;;;;;;7.10;99.90;;;;;;5099425;28;19914;-91
2021/11/14 06:27:04;;;;;;;;;;;7.10;99.90;;;;;;5099839;28;19904;-91
2021/11/14 06:29:30;;;;;;;;;;;7.10;99.90;;;;;;5100172;28;19934;-91
2021/11/14 06:31:55;;;;;;;;;;;7.00;99.90;;;;;;5099242;28;19903;-91
2021/11/14 06:34:21;;;;;;;;;;;7.00;99.90;;;;;;5099675;28;19904;-91
2021/11/14 06:36:46;;;;;;;;;;;7.00;99.90;;;;;;5099698;28;19922;-91
2021/11/14 06:39:12;;;;;;;;;;;7.00;99.90;;;;;;5100036;28;20005;-90
2021/11/14 06:41:37;;;;;;;;;;;7.00;99.90;;;;;;5099796;28;19903;-90
2021/11/14 06:44:03;;;;;;;;;;;7.00;99.90;;;;;;5099818;28;19903;-91
2021/11/14 06:46:29;;;;;;;;;;;7.20;99.90;;;;;;5099779;28;19914;-91
2021/11/14 06:48:54;;;;;;;;;;;7.20;99.90;;;;;;5116545;28;19969;-90
2021/11/14 06:51:20;;;;;;;;;;;7.20;99.90;;;;;;5099421;28;19904;-92
2021/11/14 06:53:45;;;;;;;;;;;7.20;99.90;;;;;;5099896;28;19947;-91
2021/11/14 06:56:11;;;;;;;;;;;7.30;99.90;;;;;;5100948;28;19908;-90
2021/11/14 06:58:37;;;;;;;;;;;7.30;99.90;;;;;;5106278;28;19903;-91
2021/11/14 07:01:02;;;;;;;;;;;7.30;99.90;;;;;;5107612;28;19903;-90
2021/11/14 07:03:28;;;;;;;;;;;7.30;99.90;;;;;;5117705;28;20106;-92
2021/11/14 07:05:54;;;;;;;;;;;7.30;99.90;;;;;;5121735;28;19896;-91
2021/11/14 07:08:19;;;;;;;;;;;7.40;99.90;;;;;;5108208;28;19947;-91
2021/11/14 07:10:45;;;;;;;;;;;7.40;99.90;;;;;;5100429;28;20357;-88
2021/11/14 07:13:10;;;;;;;;;;;7.50;99.90;;;;;;5118264;28;19918;-91
2021/11/14 07:15:36;;;;;;;;;;;7.50;99.90;;;;;;5099691;28;19904;-90
2021/11/14 07:18:02;;;;;;;;;;;7.50;99.90;;;;;;5099624;28;19911;-90
2021/11/14 07:20:28;;;;;;;;;;;7.50;99.90;;;;;;5098558;28;19904;-90
2021/11/14 07:22:53;;;;;;;;;;;7.50;99.90;;;;;;5098767;28;19916;-90
2021/11/14 07:25:19;;;;;;;;;;;7.50;99.90;;;;;;5099098;28;19965;-90
2021/11/14 07:27:46;;;;;;;;;;;7.50;99.90;;;;;;5098930;28;19950;-91
2021/11/14 07:30:12;;;;;;;;;;;7.50;99.90;;;;;;5117050;28;19939;-90
2021/11/14 07:32:41;;;;;;;;;;;7.60;99.90;;;;;;5116909;28;20386;-91
2021/11/14 07:35:08;;;;;;;;;;;7.60;99.90;;;;;;5099058;28;19910;-90
2021/11/14 07:37:34;;;;;;;;;;;7.60;99.90;;;;;;5101143;28;20382;-91
2021/11/14 07:40:00;;;;;;;;;;;7.60;99.90;;;;;;5102832;28;19911;-91
2021/11/14 07:42:26;;;;;;;;;;;7.50;99.90;;;;;;5102882;28;19950;-90
2021/11/14 07:44:51;;;;;;;;;;;7.50;99.90;;;;;;5102804;28;19904;-91
2021/11/14 07:47:17;;;;;;;;;;;7.60;99.90;;;;;;5102412;28;19990;-91
2021/11/14 07:49:43;;;;;;;;;;;7.60;99.90;;;;;;5102720;28;19904;-90
2021/11/14 07:52:08;;;;;;;;;;;7.60;99.90;;;;;;5102728;28;19908;-91
2021/11/14 07:54:34;;;;;;;;;;;7.60;99.90;;;;;;5102664;28;20347;-90
2021/11/14 07:56:59;;;;;;;;;;;7.70;99.90;;;;;;5102833;28;19908;-91
2021/11/14 07:59:26;;;;;;;;;;;7.70;99.90;;;;;;5102628;28;19904;-91
2021/11/14 08:01:52;;;;;;;;;;;7.80;99.90;;;;;;5101594;28;20330;-92
2021/11/14 08:04:18;;;;;;;;;;;8.10;99.90;;;;;;5120770;28;19911;-92
2021/11/14 08:06:44;;;;;;;;;;;8.40;99.90;;;;;;5103025;28;20274;-92
2021/11/14 08:09:10;;;;;;;;;;;8.70;99.90;;;;;;5102056;28;19911;-92
2021/11/14 08:11:35;;;;;;;;;;;8.90;99.90;;;;;;5120605;28;19908;-91
2021/11/14 08:14:01;;;;;;;;;;;9.10;99.90;;;;;;5102749;28;19903;-91
2021/11/14 08:16:27;;;;;;;;;;;9.30;99.90;;;;;;5102714;28;19908;-90
2021/11/14 08:18:53;;;;;;;;;;;9.20;99.90;;;;;;5102808;28;19910;-91
2021/11/14 08:21:18;;;;;;;;;;;9.00;99.90;;;;;;5101869;28;20318;-91
2021/11/14 08:23:44;;;;;;;;;;;8.90;99.90;;;;;;5120428;28;19915;-90
2021/11/14 08:26:09;;;;;;;;;;;8.80;99.90;;;;;;5101283;28;19907;-89
2021/11/14 08:28:35;;;;;;;;;;;8.80;99.90;;;;;;5101556;28;19912;-90
2021/11/14 08:31:01;;;;;;;;;;;8.70;99.90;;;;;;5101525;28;20282;-90
2021/11/14 08:33:27;;;;;;;;;;;8.60;99.90;;;;;;5119426;28;19914;-89
2021/11/14 08:35:53;;;;;;;;;;;8.50;99.90;;;;;;5101354;28;19914;-89
2021/11/14 08:38:18;;;;;;;;;;;8.50;99.90;;;;;;5101275;28;20274;-89
2021/11/14 08:40:44;;;;;;;;;;;8.40;99.90;;;;;;5100502;28;19991;-89
2021/11/14 08:43:10;;;;;;;;;;;8.40;99.90;;;;;;5101021;28;19911;-89
2021/11/14 08:45:36;;;;;;;;;;;8.40;99.90;;;;;;5101247;28;19912;-89
2021/11/14 08:48:03;;;;;;;;;;;8.30;99.90;;;;;;5100220;28;20380;-87
2021/11/14 08:50:29;;;;;;;;;;;8.30;99.90;;;;;;5101334;28;19910;-91
2021/11/14 08:52:55;;;;;;;;;;;8.30;99.90;;;;;;5101282;28;19904;-91
2021/11/14 08:55:23;;;;;;;;;;;8.30;99.90;;;;;;5119587;28;19921;-90
2021/11/14 08:57:49;;;;;;;;;;;8.30;99.90;;;;;;5100790;28;19908;-90
2021/11/14 09:00:18;;;;;;;;;;;8.20;99.90;;;;;;5100992;28;19928;-91
2021/11/14 09:02:43;;;;;;;;;;;8.20;99.90;;;;;;5101629;28;20423;-91
2021/11/14 09:05:09;;;;;;;;;;;8.30;99.90;;;;;;5119307;28;19907;-90
2021/11/14 09:07:35;;;;;;;;;;;8.30;99.90;;;;;;5103101;28;19961;-90
2021/11/14 09:10:00;;;;;;;;;;;8.30;99.90;;;;;;5107583;28;19904;-91
2021/11/14 09:12:27;;;;;;;;;;;8.40;99.90;;;;;;5126571;28;19904;-90
2021/11/14 09:14:53;;;;;;;;;;;8.40;99.90;;;;;;5120956;28;19899;-89
2021/11/14 09:17:18;;;;;;;;;;;8.40;99.90;;;;;;5122325;28;19915;-91
2021/11/14 09:19:44;;;;;;;;;;;8.40;99.90;;;;;;5104674;28;20338;-90
2021/11/14 09:22:10;;;;;;;;;;;8.40;99.90;;;;;;5101976;28;19911;-90
2021/11/14 09:24:36;;;;;;;;;;;8.50;99.90;;;;;;5101766;28;19946;-91
2021/11/14 09:27:01;;;;;;;;;;;8.50;99.90;;;;;;5100909;28;19904;-90
2021/11/14 09:29:27;;;;;;;;;;;8.50;99.90;;;;;;5118156;28;19925;-90
2021/11/14 09:31:52;;;;;;;;;;;8.40;99.90;;;;;;5100847;28;19904;-90
2021/11/14 09:34:18;;;;;;;;;;;8.40;99.90;;;;;;5100721;28;19960;-90
2021/11/14 09:36:44;;;;;;;;;;;8.40;99.90;;;;;;5100363;28;19911;-90
2021/11/14 09:39:11;;;;;;;;;;;8.40;99.90;;;;;;5118331;28;20333;-90
2021/11/14 09:41:39;;;;;;;;;;;8.40;99.90;;;;;;5100513;28;20346;-90
2021/11/14 09:44:05;;;;;;;;;;;8.40;99.90;;;;;;5100355;28;20278;-90
2021/11/14 09:46:31;;;;;;;;;;;8.40;99.90;;;;;;5099801;28;19929;-90
2021/11/14 09:48:57;;;;;;;;;;;8.40;99.90;;;;;;5118849;28;19911;-90
2021/11/14 09:51:23;;;;;;;;;;;8.40;99.90;;;;;;5118759;28;19911;-89
2021/11/14 09:53:48;;;;;;;;;;;8.40;99.90;;;;;;5100595;28;19908;-89
2021/11/14 09:56:14;;;;;;;;;;;8.40;99.90;;;;;;5100967;28;19908;-89
2021/11/14 09:58:40;;;;;;;;;;;8.40;99.90;;;;;;5099680;28;20282;-89
2021/11/14 10:01:06;;;;;;;;;;;8.30;99.90;;;;;;5099621;28;19931;-89
2021/11/14 10:03:32;;;;;;;;;;;8.30;99.90;;;;;;5098799;28;19903;-89
2021/11/14 10:05:58;;;;;;;;;;;8.30;99.90;;;;;;5099537;28;19949;-89
2021/11/14 10:08:24;;;;;;;;;;;8.30;99.90;;;;;;5099603;28;19948;-88
2021/11/14 10:10:51;;;;;;;;;;;8.30;99.90;;;;;;5098987;28;20346;-89
2021/11/14 10:13:16;;;;;;;;;;;8.30;99.90;;;;;;5099194;28;19903;-89
2021/11/14 10:15:43;;;;;;;;;;;8.30;99.90;;;;;;5099244;28;19929;-89
2021/11/14 10:18:08;;;;;;;;;;;8.40;99.90;;;;;;5081579;28;20010;-89
2021/11/14 10:20:36;;;;;;;;;;;8.40;99.90;;;;;;5117110;28;19965;-89
2021/11/14 10:23:10;;;;;;;;;;;8.40;99.90;;;;;;5098657;28;19912;-89
2021/11/14 10:25:36;;;;;;;;;;;8.60;99.90;;;;;;5098942;28;19907;-89
2021/11/14 10:28:03;;;;;;;;;;;8.60;99.90;;;;;;5097215;28;19911;-89
2021/11/14 10:30:30;;;;;;;;;;;8.60;99.90;;;;;;5096764;28;19910;-89
2021/11/14 10:32:57;;;;;;;;;;;8.70;99.90;;;;;;5096687;28;19952;-88
2021/11/14 10:35:24;;;;;;;;;;;8.70;99.90;;;;;;5114609;28;19904;-88
2021/11/14 10:37:50;;;;;;;;;;;8.70;99.90;;;;;;5096280;28;19923;-89
2021/11/14 10:40:17;;;;;;;;;;;8.70;99.90;;;;;;5096177;28;19904;-89
2021/11/14 10:42:45;;;;;;;;;;;8.70;99.90;;;;;;5114622;28;20024;-89
2021/11/14 10:45:10;;;;;;;;;;;8.70;99.90;;;;;;5096345;28;19976;-89
2021/11/14 10:47:36;;;;;;;;;;;8.70;99.90;;;;;;5096399;28;19904;-89
2021/11/14 10:50:04;;;;;;;;;;;8.80;99.90;;;;;;5096355;28;19904;-89
2021/11/14 10:52:30;;;;;;;;;;;8.80;99.90;;;;;;5096371;28;19907;-88
2021/11/14 10:54:58;;;;;;;;;;;8.80;99.90;;;;;;5114419;28;19908;-88
2021/11/14 10:57:24;;;;;;;;;;;8.80;99.90;;;;;;5096408;28;20377;-89
2021/11/14 10:59:51;;;;;;;;;;;8.80;99.90;;;;;;5095853;28;19908;-89
2021/11/14 11:02:17;;;;;;;;;;;8.80;99.90;;;;;;5096025;28;19911;-89
2021/11/14 11:04:43;;;;;;;;;;;8.90;99.90;;;;;;5095977;28;19911;-88
2021/11/14 11:07:12;;;;;;;;;;;8.80;99.90;;;;;;5113915;28;19908;-88
2021/11/14 11:09:39;;;;;;;;;;;8.90;99.90;;;;;;5096594;28;20011;-86
2021/11/14 11:12:22;;;;;;;;;;;8.80;99.90;;;;;;5099252;28;19949;-89
2021/11/14 11:15:05;;;;;;;;;;;8.90;99.90;;;;;;5100222;28;19904;-88
2021/11/14 11:17:41;;;;;;;;;;;8.90;99.90;;;;;;5100039;28;19972;-87
2021/11/14 11:20:08;;;;;;;;;;;8.80;99.90;;;;;;5102522;28;20362;-88
2021/11/14 11:22:44;;;;;;;;;;;8.90;99.90;;;;;;5103221;28;20399;-88
2021/11/14 11:25:10;;;;;;;;;;;8.90;99.90;;;;;;5130335;28;19915;-88
2021/11/14 11:27:35;;;;;;;;;;;8.80;99.90;;;;;;5124866;28;19962;-88
2021/11/14 11:30:01;;;;;;;;;;;8.90;99.90;;;;;;5116833;28;19915;-88
2021/11/14 11:32:26;;;;;;;;;;;8.80;99.90;;;;;;5101283;28;19904;-88
2021/11/14 11:34:52;;;;;;;;;;;8.80;99.90;;;;;;5100349;28;19946;-89
2021/11/14 11:37:18;;;;;;;;;;;8.90;99.90;;;;;;5099858;28;19915;-88
2021/11/14 11:39:43;;;;;;;;;;;9.00;99.90;;;;;;5099681;28;20022;-88
2021/11/14 11:42:10;;;;;;;;;;;9.10;99.90;;;;;;5099576;28;19911;-88
2021/11/14 11:44:35;;;;;;;;;;;9.20;99.90;;;;;;5099455;28;20003;-87
2021/11/14 11:47:06;;;;;;;;;;;9.10;99.90;;;;;;5099465;28;20263;-88
2021/11/14 11:49:32;;;;;;;;;;;9.10;99.90;;;;;;5099423;28;19903;-88
2021/11/14 11:51:59;;;;;;;;;;;9.10;99.90;;;;;;5099326;28;20346;-88
2021/11/14 11:54:26;;;;;;;;;;;9.00;99.90;;;;;;5099166;28;19935;-88
2021/11/14 11:57:12;;;;;;;;;;;9.00;99.90;;;;;;5099023;28;19907;-87
2021/11/14 11:59:49;;;;;;;;;;;8.90;99.90;;;;;;5098668;28;20266;-88
2021/11/14 12:02:17;;;;;;;;;;;8.90;99.90;;;;;;5099005;28;19904;-88
2021/11/14 12:04:44;;;;;;;;;;;8.90;99.90;;;;;;5099163;28;19927;-88
2021/11/14 12:07:12;;;;;;;;;;;8.90;99.90;;;;;;5117318;28;19904;-87
2021/11/14 12:09:41;;;;;;;;;;;9.00;99.90;;;;;;5099193;28;19907;-88
2021/11/14 12:12:24;;;;;;;;;;;9.10;99.90;;;;;;5099108;28;19904;-88
2021/11/14 12:15:15;;;;;;;;;;;9.00;99.90;;;;;;5099179;28;19960;-88
2021/11/14 12:18:00;;;;;;;;;;;9.00;99.90;;;;;;5098842;28;19907;-87
2021/11/14 12:20:56;;;;;;;;;;;8.90;99.90;;;;;;5097827;28;19952;-87
2021/11/14 12:23:21;;;;;;;;;;;8.90;99.90;;;;;;5067028;28;19920;-88
2021/11/14 12:25:48;;;;;;;;;;;8.90;99.90;;;;;;5098658;28;19947;-87
2021/11/14 12:28:15;;;;;;;;;;;8.90;99.90;;;;;;5098716;28;19946;-87
2021/11/14 12:30:46;;;;;;;;;;;8.90;99.90;;;;;;5098735;28;20033;-88
2021/11/14 12:33:19;;;;;;;;;;;9.00;99.90;;;;;;5098552;28;20417;-87
2021/11/14 12:35:47;;;;;;;;;;;9.00;99.90;;;;;;5098360;28;19904;-87
2021/11/14 12:38:20;;;;;;;;;;;9.00;99.90;;;;;;5098445;28;19903;-88
2021/11/14 12:40:47;;;;;;;;;;;8.90;99.90;;;;;;5098324;28;19945;-87
2021/11/14 12:43:15;;;;;;;;;;;8.80;99.90;;;;;;5098436;28;19904;-87
2021/11/14 12:45:49;;;;;;;;;;;8.90;99.90;;;;;;5098219;28;19939;-87
2021/11/14 12:48:14;;;;;;;;;;;8.90;99.90;;;;;;5098212;28;19945;-87
2021/11/14 12:50:40;;;;;;;;;;;8.90;99.90;;;;;;5098188;28;20259;-87
2021/11/14 12:53:15;;;;;;;;;;;8.80;99.90;;;;;;5098192;28;19908;-87
2021/11/14 12:55:42;;;;;;;;;;;8.80;99.90;;;;;;5098092;28;20030;-87
2021/11/14 12:58:09;;;;;;;;;;;8.80;99.90;;;;;;5097961;28;19964;-87
2021/11/14 13:00:39;;;;;;;;;;;8.80;99.90;;;;;;5098485;28;19904;-87
2021/11/14 13:03:06;;;;;;;;;;;8.80;99.90;;;;;;5098093;28;20388;-87
2021/11/14 13:05:43;;;;;;;;;;;8.80;99.90;;;;;;5097841;28;19904;-87
2021/11/14 13:08:09;;;;;;;;;;;8.80;99.90;;;;;;5098039;28;19931;-87
2021/11/14 13:10:44;;;;;;;;;;;8.70;99.90;;;;;;5116115;28;19911;-87
2021/11/14 13:13:09;;;;;;;;;;;8.70;99.90;;;;;;5097746;28;19911;-87
2021/11/14 13:15:35;;;;;;;;;;;8.70;99.90;;;;;;5097684;28;19907;-87
2021/11/14 13:18:01;;;;;;;;;;;8.60;99.90;;;;;;5097555;28;19908;-87
2021/11/14 13:20:27;;;;;;;;;;;8.60;99.90;;;;;;5097578;28;19969;-87
2021/11/14 13:22:54;;;;;;;;;;;8.60;99.90;;;;;;5097339;28;19940;-87
2021/11/14 13:25:21;;;;;;;;;;;8.60;99.90;;;;;;5097514;28;19907;-87
2021/11/14 13:27:47;;;;;;;;;;;8.60;99.90;;;;;;5097465;28;19995;-87
2021/11/14 13:30:13;;;;;;;;;;;8.60;99.90;;;;;;5098303;28;20200;-87
2021/11/14 13:32:39;;;;;;;;;;;8.60;99.90;;;;;;5116872;28;20017;-87
2021/11/14 13:35:04;;;;;;;;;;;8.60;99.90;;;;;;5108923;28;19904;-87
2021/11/14 13:37:34;;;;;;;;;;;8.50;99.90;;;;;;5122070;28;19919;-87
2021/11/14 13:40:06;;;;;;;;;;;8.60;99.90;;;;;;5108893;28;19914;-87
2021/11/14 13:42:37;;;;;;;;;;;8.60;99.90;;;;;;5098548;28;19911;-87
2021/11/14 13:45:05;;;;;;;;;;;8.60;99.90;;;;;;5098465;28;19958;-87
2021/11/14 13:47:43;;;;;;;;;;;8.60;99.90;;;;;;5097150;28;20278;-87
2021/11/14 13:50:21;;;;;;;;;;;8.50;99.90;;;;;;5097191;28;20014;-87
2021/11/14 13:52:48;;;;;;;;;;;8.50;99.90;;;;;;5097045;28;19910;-87
2021/11/14 13:55:14;;;;;;;;;;;8.50;99.90;;;;;;5096982;28;19910;-87
2021/11/14 13:57:41;;;;;;;;;;;8.50;99.90;;;;;;5096822;28;19912;-87
2021/11/14 14:00:09;;;;;;;;;;;8.50;99.90;;;;;;5096950;28;19903;-87
2021/11/14 14:02:36;;;;;;;;;;;8.50;99.90;;;;;;5096900;28;19993;-87
2021/11/14 14:05:06;;;;;;;;;;;8.50;99.90;;;;;;5096781;28;19911;-87
2021/11/14 14:07:33;;;;;;;;;;;8.50;99.90;;;;;;5096652;28;19925;-87
2021/11/14 14:10:10;;;;;;;;;;;8.50;99.90;;;;;;5096697;28;20285;-87
2021/11/14 14:12:55;;;;;;;;;;;8.50;99.90;;;;;;5096582;28;19908;-87
2021/11/14 14:15:23;;;;;;;;;;;8.50;99.90;;;;;;5115191;28;19940;-87
2021/11/14 14:17:50;;;;;;;;;;;8.60;99.90;;;;;;5096503;28;19914;-87
2021/11/14 14:20:16;;;;;;;;;;;8.60;99.90;;;;;;5096465;28;19948;-87
2021/11/14 14:22:48;;;;;;;;;;;8.50;99.90;;;;;;5096118;28;19916;-87
2021/11/14 14:25:16;;;;;;;;;;;8.50;99.90;;;;;;5096517;28;19931;-87
2021/11/14 14:27:43;;;;;;;;;;;8.60;99.90;;;;;;5096353;28;20271;-87
2021/11/14 14:30:17;;;;;;;;;;;8.50;99.90;;;;;;5096278;28;20370;-87
2021/11/14 14:32:50;;;;;;;;;;;8.50;99.90;;;;;;5096145;28;19910;-86